Terminal Aerodrome Forecast
Issued by NWS Lake Charles, LA

Home | Current Version | Previous Version | Text Only | Print | Product List | Glossary On
Versions: 1 2 3 4 5 6 7 8 9 10 11 12 13 14 15 16 17 18 19 20
898
FTUS44 KLCH 231526 AAB
TAFLCH
TAF AMD
KLCH 231526Z 2315/2412 09003KT 3SM BR BKN002
      TEMPO 2316/2318 6SM BR FEW002 SCT015
     FM231800 16008KT P6SM SCT025
     FM240400 15009KT P6SM BKN015=

USA.gov is the U.S. government's official web portal to all federal, state and local government web resources and services.